createdAt,value
2023-03-27T00:01:42.721Z,12.10
2023-03-27T00:08:28.268Z,11.80
2023-03-27T00:10:32.012Z,7.60
2023-03-27T00:11:58.043Z,6.60
2023-03-27T00:15:36.096Z,7.90
2023-03-27T00:17:54.881Z,11.70
2023-03-27T00:19:23.709Z,10.40
2023-03-27T00:21:52.376Z,9.80
2023-03-27T00:28:59.803Z,7.80
2023-03-27T00:30:30.664Z,10.50
2023-03-27T00:32:00.877Z,10.70
2023-03-27T00:34:19.267Z,6.80
2023-03-27T00:35:48.188Z,12.50
2023-03-27T00:37:18.310Z,6.10
2023-03-27T00:39:39.005Z,9.20
2023-03-27T00:45:31.086Z,9.50
2023-03-27T00:50:00.821Z,11.30
2023-03-27T00:55:01.222Z,10.80
2023-03-27T01:03:19.691Z,8.60
2023-03-27T01:08:59.922Z,6.20
2023-03-27T01:13:43.999Z,9.60
2023-03-27T01:17:02.735Z,11.90
2023-03-27T01:18:31.628Z,8.00
2023-03-27T01:24:00.020Z,8.80
2023-03-27T01:25:18.087Z,13.80
2023-03-27T01:31:33.773Z,11.40
2023-03-27T01:33:02.757Z,9.10
2023-03-27T01:35:01.484Z,11.00
2023-03-27T01:38:10.543Z,11.60
2023-03-27T01:40:43.713Z,10.40
2023-03-27T01:43:05.957Z,11.80
2023-03-27T01:44:43.366Z,10.70
2023-03-27T01:48:25.908Z,10.90
2023-03-27T01:49:54.828Z,10.70
2023-03-27T01:51:46.313Z,12.40
2023-03-27T01:55:55.458Z,15.80
2023-03-27T01:57:25.318Z,9.80
2023-03-27T02:04:22.771Z,8.70
2023-03-27T02:06:44.143Z,9.20
2023-03-27T02:10:53.582Z,7.00
2023-03-27T02:12:52.394Z,10.50
2023-03-27T02:14:24.292Z,11.20
2023-03-27T02:17:44.201Z,11.10
2023-03-27T02:19:11.025Z,11.60
2023-03-27T02:20:41.581Z,8.20
2023-03-27T02:24:09.991Z,10.70
2023-03-27T02:27:09.939Z,7.10
2023-03-27T02:31:05.831Z,12.20
2023-03-27T02:33:12.209Z,9.00
2023-03-27T02:34:43.851Z,12.50
2023-03-27T02:36:11.358Z,11.50
2023-03-27T02:39:23.010Z,11.70
2023-03-27T02:42:33.254Z,8.20
2023-03-27T02:44:51.579Z,14.00
2023-03-27T02:50:45.002Z,8.60
2023-03-27T02:57:32.524Z,8.10
2023-03-27T03:00:32.222Z,9.50
2023-03-27T03:08:44.875Z,9.40
2023-03-27T03:12:36.956Z,9.40
2023-03-27T03:14:33.108Z,11.00
2023-03-27T03:16:20.975Z,9.80
2023-03-27T03:20:35.317Z,7.30
2023-03-27T03:22:23.451Z,7.00
2023-03-27T03:24:14.331Z,8.10
2023-03-27T03:27:44.352Z,11.10
2023-03-27T03:30:17.379Z,11.00
2023-03-27T03:32:03.221Z,9.90
2023-03-27T03:33:34.142Z,8.70
2023-03-27T03:35:23.321Z,5.60
2023-03-27T03:37:19.232Z,13.00
2023-03-27T03:42:06.543Z,8.00
2023-03-27T03:43:40.269Z,8.60
2023-03-27T03:47:24.778Z,6.00
2023-03-27T03:53:24.146Z,9.80
2023-03-27T03:54:49.473Z,10.20
2023-03-27T03:56:40.301Z,9.50
2023-03-27T03:59:32.365Z,8.00
2023-03-27T04:01:29.351Z,6.90
2023-03-27T04:05:39.855Z,8.10
2023-03-27T04:08:18.314Z,6.10
2023-03-27T04:26:23.930Z,8.80
2023-03-27T04:28:43.746Z,8.30
2023-03-27T04:30:33.425Z,8.30
2023-03-27T04:32:05.335Z,4.60
2023-03-27T04:36:41.539Z,10.20
2023-03-27T04:40:07.479Z,7.70
2023-03-27T04:42:06.656Z,11.60
2023-03-27T04:45:54.601Z,7.00
2023-03-27T04:47:57.678Z,4.80
2023-03-27T04:52:06.323Z,8.30
2023-03-27T04:57:04.797Z,5.80
2023-03-27T05:00:11.147Z,8.40
2023-03-27T05:04:13.644Z,11.50
2023-03-27T05:05:43.745Z,4.90
2023-03-27T05:07:11.399Z,8.50
2023-03-27T05:09:48.653Z,10.20
2023-03-27T05:14:09.962Z,10.40
2023-03-27T05:15:37.944Z,9.60
2023-03-27T05:18:14.641Z,7.50
2023-03-27T05:20:40.796Z,9.80
2023-03-27T05:24:30.871Z,6.80
2023-03-27T05:27:28.490Z,9.20
2023-03-27T05:31:25.236Z,13.40
2023-03-27T05:38:30.075Z,8.40
2023-03-27T05:41:45.886Z,7.30
2023-03-27T05:43:44.817Z,11.40
2023-03-27T05:46:36.550Z,6.20
2023-03-27T05:49:58.866Z,7.00
2023-03-27T05:51:58.696Z,5.70
2023-03-27T05:55:45.376Z,6.40
2023-03-27T06:04:48.980Z,6.50
2023-03-27T06:11:13.393Z,4.60
2023-03-27T06:16:06.613Z,4.60
2023-03-27T06:17:56.398Z,6.10
2023-03-27T06:22:22.291Z,7.90
2023-03-27T06:24:48.385Z,7.70
2023-03-27T06:28:20.422Z,8.00
2023-03-27T06:36:55.301Z,9.10
2023-03-27T06:38:46.527Z,6.00
2023-03-27T06:40:19.486Z,9.20
2023-03-27T06:42:38.835Z,8.00
2023-03-27T06:45:30.420Z,7.80
2023-03-27T06:48:22.732Z,6.20
2023-03-27T06:52:11.097Z,7.30
2023-03-27T06:56:31.313Z,6.60
2023-03-27T07:02:29.441Z,10.90
2023-03-27T07:11:19.486Z,6.50
2023-03-27T07:12:50.155Z,5.90
2023-03-27T07:15:11.138Z,4.70
2023-03-27T07:19:16.246Z,6.00
2023-03-27T07:21:15.342Z,13.00
2023-03-27T07:24:23.947Z,9.50
2023-03-27T07:33:34.130Z,13.20
2023-03-27T07:36:11.670Z,9.10
2023-03-27T07:37:40.295Z,6.40
2023-03-27T07:40:38.957Z,7.10
2023-03-27T07:44:07.957Z,5.10
2023-03-27T07:45:40.850Z,6.30
2023-03-27T07:49:08.262Z,4.30
2023-03-27T07:50:37.241Z,6.40
2023-03-27T07:53:33.050Z,7.30
2023-03-27T07:55:57.421Z,6.90
2023-03-27T07:58:28.363Z,8.00
2023-03-27T07:59:57.898Z,5.60
2023-03-27T08:00:57.165Z,7.00
2023-03-27T08:01:57.174Z,6.30
2023-03-27T08:03:29.379Z,7.80
2023-03-27T08:05:17.482Z,9.30
2023-03-27T08:07:15.479Z,8.60
2023-03-27T08:10:42.514Z,5.90
2023-03-27T08:13:05.870Z,6.00
2023-03-27T08:14:12.223Z,6.20
2023-03-27T08:16:02.894Z,9.10
2023-03-27T08:17:30.272Z,6.90
2023-03-27T08:19:59.622Z,8.50
2023-03-27T08:21:48.339Z,7.90
2023-03-27T08:27:58.502Z,6.80
2023-03-27T08:32:11.250Z,11.70
2023-03-27T08:35:25.997Z,7.80
2023-03-27T08:37:46.316Z,5.20
2023-03-27T08:39:35.066Z,7.40
2023-03-27T08:44:07.358Z,6.40
2023-03-27T08:47:47.591Z,8.60
2023-03-27T08:49:17.963Z,4.10
2023-03-27T08:51:57.479Z,9.10
2023-03-27T08:55:45.295Z,6.20
2023-03-27T08:58:38.157Z,6.70
2023-03-27T09:00:46.065Z,5.80
2023-03-27T09:02:44.690Z,8.80
2023-03-27T09:11:36.213Z,6.10
2023-03-27T09:16:57.751Z,5.10
2023-03-27T09:21:11.174Z,2.70
2023-03-27T09:22:41.488Z,4.00
2023-03-27T09:24:11.843Z,5.60
2023-03-27T09:25:42.692Z,6.20
2023-03-27T09:29:23.129Z,6.00
2023-03-27T09:32:26.505Z,4.00
2023-03-27T09:34:58.494Z,3.90
2023-03-27T09:37:24.326Z,4.30
2023-03-27T09:42:47.814Z,2.10
2023-03-27T09:44:16.689Z,3.20
2023-03-27T09:45:46.630Z,3.50
2023-03-27T09:46:46.596Z,5.70
2023-03-27T09:47:46.715Z,4.70
2023-03-27T09:48:46.614Z,4.80
2023-03-27T09:49:46.560Z,5.50
2023-03-27T09:50:46.553Z,5.80
2023-03-27T09:56:14.826Z,4.20
2023-03-27T09:57:14.811Z,4.80
2023-03-27T09:58:14.812Z,5.10
2023-03-27T10:03:36.582Z,4.20
2023-03-27T10:08:59.218Z,3.50
2023-03-27T10:14:52.439Z,5.20
2023-03-27T10:16:20.768Z,3.20
2023-03-27T10:21:17.891Z,3.60
2023-03-27T10:24:15.933Z,2.70
2023-03-27T10:31:38.436Z,3.40
2023-03-27T10:34:06.078Z,2.50
2023-03-27T10:37:04.096Z,3.80
2023-03-27T10:39:31.923Z,4.70
2023-03-27T10:43:59.370Z,3.80
2023-03-27T10:45:28.387Z,2.50
2023-03-27T10:48:56.312Z,1.30
2023-03-27T10:50:25.213Z,2.40
2023-03-27T10:52:52.939Z,3.60
2023-03-27T10:54:21.902Z,2.60
2023-03-27T10:57:18.672Z,3.60
2023-03-27T11:00:14.283Z,3.10
2023-03-27T11:07:03.255Z,2.80
2023-03-27T11:11:58.293Z,2.50
2023-03-27T11:13:28.311Z,2.70
2023-03-27T11:16:24.938Z,2.90
2023-03-27T11:18:52.656Z,2.70
2023-03-27T11:22:19.324Z,2.10
2023-03-27T11:25:47.918Z,3.90
2023-03-27T11:32:40.038Z,1.70
2023-03-27T11:37:07.141Z,1.80
2023-03-27T11:42:31.134Z,1.60
2023-03-27T11:45:27.875Z,3.80
2023-03-27T11:48:55.221Z,3.60
2023-03-27T11:50:24.098Z,4.20
2023-03-27T11:58:46.719Z,3.60
2023-03-27T12:00:16.676Z,3.00
2023-03-27T12:04:10.891Z,5.80
2023-03-27T12:05:39.770Z,5.20
2023-03-27T12:09:07.324Z,2.40
2023-03-27T12:10:36.197Z,4.50
2023-03-27T12:13:41.108Z,3.20
2023-03-27T12:17:58.777Z,2.30
2023-03-27T12:21:26.230Z,4.00
2023-03-27T12:24:59.484Z,2.20
2023-03-27T12:26:53.165Z,2.80
2023-03-27T12:28:50.996Z,2.60
2023-03-27T12:31:48.967Z,4.60
2023-03-27T12:36:43.541Z,5.40
2023-03-27T12:39:10.334Z,6.40
2023-03-27T12:40:39.302Z,5.90
2023-03-27T12:42:08.170Z,3.60
2023-03-27T12:47:59.954Z,4.10
2023-03-27T12:49:40.544Z,4.70
2023-03-27T12:51:57.586Z,3.20
2023-03-27T12:53:26.482Z,3.50
2023-03-27T13:00:47.072Z,1.50
2023-03-27T13:02:16.686Z,1.10
2023-03-27T13:03:45.727Z,2.40
2023-03-27T13:06:13.306Z,1.80
2023-03-27T13:08:41.018Z,1.20
2023-03-27T13:10:39.851Z,4.40
2023-03-27T13:13:07.553Z,1.00
2023-03-27T13:17:04.929Z,2.30
2023-03-27T13:20:32.786Z,1.90
2023-03-27T13:23:29.923Z,2.10
2023-03-27T13:27:57.024Z,4.50
2023-03-27T13:29:27.128Z,3.70
2023-03-27T13:32:22.778Z,2.90
2023-03-27T13:34:50.880Z,0.90
2023-03-27T13:46:05.073Z,2.70
2023-03-27T13:48:32.894Z,2.10
2023-03-27T13:52:58.516Z,2.20
2023-03-27T13:57:52.889Z,1.00
2023-03-27T14:07:31.204Z,1.80
2023-03-27T14:12:55.706Z,0.90
2023-03-27T14:16:43.618Z,1.60
2023-03-27T14:22:34.731Z,2.30
2023-03-27T14:25:01.522Z,4.20
2023-03-27T14:28:27.346Z,4.30
2023-03-27T14:31:54.443Z,3.60
2023-03-27T14:37:36.737Z,7.90
2023-03-27T14:39:05.604Z,3.50
2023-03-27T14:45:54.586Z,6.10
2023-03-27T14:50:46.688Z,4.70
2023-03-27T14:52:15.647Z,4.30
2023-03-27T14:53:15.613Z,4.80
2023-03-27T14:54:15.628Z,4.40
2023-03-27T14:59:07.795Z,5.30
2023-03-27T15:08:25.580Z,4.00
2023-03-27T15:11:21.431Z,3.30
2023-03-27T15:13:20.596Z,3.50
2023-03-27T15:15:19.794Z,2.30
2023-03-27T15:16:48.803Z,3.50
2023-03-27T15:19:17.447Z,1.50
2023-03-27T15:24:41.158Z,2.50
2023-03-27T15:30:05.478Z,3.60
2023-03-27T15:32:05.301Z,5.90
2023-03-27T15:34:33.480Z,3.60
2023-03-27T15:37:59.815Z,3.90
2023-03-27T15:46:09.829Z,4.90
2023-03-27T15:47:39.710Z,6.50
2023-03-27T15:49:37.558Z,5.80
2023-03-27T15:52:06.478Z,9.00
2023-03-27T15:56:32.096Z,8.80
2023-03-27T15:59:29.099Z,7.00
2023-03-27T16:01:56.876Z,5.30
2023-03-27T16:04:54.503Z,2.90
2023-03-27T16:06:52.581Z,3.60
2023-03-27T16:09:49.284Z,5.00
2023-03-27T16:11:19.506Z,7.40
2023-03-27T16:12:48.834Z,2.60
2023-03-27T16:16:27.997Z,6.80
2023-03-27T16:18:19.702Z,6.00
2023-03-27T16:20:49.938Z,6.90
2023-03-27T16:22:19.926Z,7.90
2023-03-27T16:27:30.749Z,5.90
2023-03-27T16:29:20.465Z,5.20
2023-03-27T16:33:47.501Z,10.80
2023-03-27T16:35:46.727Z,8.60
2023-03-27T16:39:04.579Z,8.30
2023-03-27T16:40:34.456Z,7.20
2023-03-27T16:43:02.225Z,5.20
2023-03-27T16:45:53.111Z,4.70
2023-03-27T16:50:53.360Z,6.60
2023-03-27T16:54:12.014Z,7.80
2023-03-27T17:00:34.519Z,7.60
2023-03-27T17:03:34.104Z,4.30
2023-03-27T17:05:34.079Z,5.10
2023-03-27T17:07:02.865Z,10.60
2023-03-27T17:08:31.232Z,8.30
2023-03-27T17:12:13.363Z,6.70
2023-03-27T17:14:13.548Z,7.80
2023-03-27T17:17:30.878Z,8.10
2023-03-27T17:19:00.822Z,6.50
2023-03-27T17:22:30.327Z,5.70
2023-03-27T17:24:56.786Z,6.10
2023-03-27T17:27:53.790Z,5.20
2023-03-27T17:29:23.398Z,10.50
2023-03-27T17:34:06.510Z,12.10
2023-03-27T17:37:03.500Z,5.70
2023-03-27T17:41:38.575Z,6.10
2023-03-27T17:43:36.405Z,5.00
2023-03-27T17:45:27.967Z,7.10
2023-03-27T17:47:02.008Z,11.50
2023-03-27T17:49:01.239Z,8.50
2023-03-27T17:50:31.486Z,4.50
2023-03-27T17:53:20.509Z,7.20
2023-03-27T17:55:09.217Z,6.40
2023-03-27T17:58:11.568Z,4.90
2023-03-27T18:02:45.028Z,6.90
2023-03-27T18:04:15.467Z,6.60
2023-03-27T18:06:34.398Z,7.50
2023-03-27T18:08:25.869Z,5.60
2023-03-27T18:09:52.354Z,8.70
2023-03-27T18:12:10.036Z,6.90
2023-03-27T18:13:41.896Z,5.40
2023-03-27T18:15:12.645Z,6.30
2023-03-27T18:17:26.677Z,7.50
2023-03-27T18:18:56.520Z,6.70
2023-03-27T18:20:27.219Z,12.90
2023-03-27T18:21:56.816Z,6.60
2023-03-27T18:23:47.109Z,10.20
2023-03-27T18:25:19.187Z,8.70
2023-03-27T18:28:20.514Z,6.10
2023-03-27T18:38:40.164Z,12.00
2023-03-27T18:41:58.448Z,8.90
2023-03-27T18:45:57.320Z,8.00
2023-03-27T18:47:26.090Z,19.10
2023-03-27T18:51:15.322Z,6.40
2023-03-27T18:57:25.117Z,11.80
2023-03-27T18:59:25.030Z,11.00
2023-03-27T19:00:54.762Z,10.90
2023-03-27T19:02:26.771Z,8.00
2023-03-27T19:03:56.710Z,11.50
2023-03-27T19:05:25.182Z,8.70
2023-03-27T19:07:49.673Z,6.60
2023-03-27T19:15:49.476Z,7.40
2023-03-27T19:17:16.660Z,9.90
2023-03-27T19:18:45.536Z,7.70
2023-03-27T19:21:48.087Z,7.30
2023-03-27T19:25:35.388Z,7.90
2023-03-27T19:28:14.651Z,14.10
2023-03-27T19:33:07.842Z,8.70
2023-03-27T19:37:39.255Z,10.00
2023-03-27T19:39:07.418Z,12.70
2023-03-27T19:44:12.614Z,7.80
2023-03-27T19:46:15.034Z,7.00
2023-03-27T19:53:50.678Z,11.70
2023-03-27T19:55:46.747Z,11.90
2023-03-27T19:58:58.476Z,12.60
2023-03-27T20:03:23.134Z,6.40
2023-03-27T20:07:36.102Z,9.20
2023-03-27T20:09:39.532Z,8.60
2023-03-27T20:11:04.862Z,14.40
2023-03-27T20:12:38.485Z,8.00
2023-03-27T20:14:10.037Z,9.40
2023-03-27T20:15:40.399Z,8.70
2023-03-27T20:18:13.088Z,8.50
2023-03-27T20:23:08.816Z,8.30
2023-03-27T20:24:38.703Z,5.70
2023-03-27T20:28:21.128Z,8.60
2023-03-27T20:29:49.184Z,11.40
2023-03-27T20:31:21.565Z,7.80
2023-03-27T20:33:21.569Z,8.10
2023-03-27T20:36:43.115Z,9.10
2023-03-27T20:39:31.573Z,9.70
2023-03-27T20:41:02.194Z,9.80
2023-03-27T20:42:31.831Z,9.90
2023-03-27T20:45:55.170Z,6.70
2023-03-27T20:50:22.515Z,14.30
2023-03-27T20:52:47.596Z,7.40
2023-03-27T20:54:57.907Z,7.10
2023-03-27T21:03:36.224Z,12.50
2023-03-27T21:05:36.473Z,10.00
2023-03-27T21:08:21.670Z,11.60
2023-03-27T21:12:41.593Z,9.30
2023-03-27T21:14:29.424Z,7.90
2023-03-27T21:27:04.232Z,8.00
2023-03-27T21:28:43.056Z,8.30
2023-03-27T21:32:23.962Z,8.10
2023-03-27T21:35:09.633Z,5.40
2023-03-27T21:38:03.081Z,11.10
2023-03-27T21:40:50.214Z,6.70
2023-03-27T21:42:39.024Z,9.40
2023-03-27T21:44:41.085Z,7.60
2023-03-27T21:47:37.339Z,10.80
2023-03-27T21:50:29.417Z,8.70
2023-03-27T21:51:58.245Z,9.30
2023-03-27T21:53:26.245Z,7.80
2023-03-27T21:56:45.974Z,10.80
2023-03-27T22:04:42.163Z,8.50
2023-03-27T22:07:01.399Z,10.50
2023-03-27T22:09:18.232Z,8.10
2023-03-27T22:11:59.133Z,9.30
2023-03-27T22:13:28.668Z,9.20
2023-03-27T22:14:59.425Z,11.40
2023-03-27T22:17:37.978Z,8.90
2023-03-27T22:22:00.235Z,11.50
2023-03-27T22:24:02.061Z,9.10
2023-03-27T22:26:32.364Z,9.00
2023-03-27T22:29:39.546Z,7.10
2023-03-27T22:33:36.288Z,13.40
2023-03-27T22:35:11.301Z,13.90
2023-03-27T22:41:15.348Z,6.10
2023-03-27T22:44:34.977Z,15.50
2023-03-27T22:49:55.694Z,10.90
2023-03-27T22:52:02.878Z,14.10
2023-03-27T22:54:24.160Z,9.20
2023-03-27T22:55:51.935Z,12.60
2023-03-27T22:58:19.172Z,10.80
2023-03-27T23:01:50.235Z,11.50
2023-03-27T23:04:10.367Z,9.40
2023-03-27T23:05:42.319Z,10.80
2023-03-27T23:07:24.689Z,9.00
2023-03-27T23:10:04.808Z,10.20
2023-03-27T23:12:35.008Z,9.90
2023-03-27T23:16:14.313Z,8.00
2023-03-27T23:17:44.535Z,10.60
2023-03-27T23:20:35.505Z,9.20
2023-03-27T23:22:41.095Z,10.40
2023-03-27T23:24:10.387Z,13.70
2023-03-27T23:30:33.604Z,7.80
2023-03-27T23:33:55.648Z,15.60
2023-03-27T23:37:29.403Z,9.60
2023-03-27T23:39:17.606Z,7.40
2023-03-27T23:42:53.912Z,12.80
2023-03-27T23:45:46.818Z,12.40
2023-03-27T23:49:43.168Z,9.40
2023-03-27T23:52:03.973Z,8.40
2023-03-27T23:53:33.597Z,12.80
2023-03-27T23:55:22.488Z,11.30
2023-03-27T23:59:09.789Z,9.30
